sensor_id;sensor_type;location;lat;lon;timestamp;pressure;altitude;pressure_sealevel;temperature;humidity
70976;BME280;58635;51.198;6.010;2023-05-10T00:01:03;100700.66;;;18.27;63.33
70976;BME280;58635;51.198;6.010;2023-05-10T00:03:28;100696.44;;;18.26;63.65
70976;BME280;58635;51.198;6.010;2023-05-10T00:05:54;100694.88;;;18.25;63.49
70976;BME280;58635;51.198;6.010;2023-05-10T00:08:19;100693.03;;;18.26;63.31
70976;BME280;58635;51.198;6.010;2023-05-10T00:10:44;100700.09;;;18.25;63.28
70976;BME280;58635;51.198;6.010;2023-05-10T00:13:10;100696.69;;;18.25;63.27
70976;BME280;58635;51.198;6.010;2023-05-10T00:15:35;100694.09;;;18.25;63.28
70976;BME280;58635;51.198;6.010;2023-05-10T00:18:01;100695.91;;;18.24;63.37
70976;BME280;58635;51.198;6.010;2023-05-10T00:20:26;100699.00;;;18.21;63.50
70976;BME280;58635;51.198;6.010;2023-05-10T00:22:51;100699.78;;;18.22;63.37
70976;BME280;58635;51.198;6.010;2023-05-10T00:25:17;100695.59;;;18.21;63.34
70976;BME280;58635;51.198;6.010;2023-05-10T00:27:42;100704.47;;;18.20;63.35
70976;BME280;58635;51.198;6.010;2023-05-10T00:30:08;100687.44;;;18.17;63.44
70976;BME280;58635;51.198;6.010;2023-05-10T00:32:33;100692.69;;;18.17;63.61
70976;BME280;58635;51.198;6.010;2023-05-10T00:34:59;100691.34;;;18.15;63.61
70976;BME280;58635;51.198;6.010;2023-05-10T00:37:24;100689.53;;;18.15;63.70
70976;BME280;58635;51.198;6.010;2023-05-10T00:39:50;100687.16;;;18.14;63.71
70976;BME280;58635;51.198;6.010;2023-05-10T00:42:15;100692.63;;;18.12;63.63
70976;BME280;58635;51.198;6.010;2023-05-10T00:44:41;100689.22;;;18.11;63.75
70976;BME280;58635;51.198;6.010;2023-05-10T00:47:07;100689.22;;;18.11;63.58
70976;BME280;58635;51.198;6.010;2023-05-10T00:49:33;100689.22;;;18.11;63.49
70976;BME280;58635;51.198;6.010;2023-05-10T00:51:58;100686.63;;;18.11;63.65
70976;BME280;58635;51.198;6.010;2023-05-10T00:54:24;100686.38;;;18.13;63.51
70976;BME280;58635;51.198;6.010;2023-05-10T00:56:49;100682.16;;;18.12;63.49
70976;BME280;58635;51.198;6.010;2023-05-10T00:59:16;100690.03;;;18.12;63.42
70976;BME280;58635;51.198;6.010;2023-05-10T01:01:43;100690.81;;;18.13;63.34
70976;BME280;58635;51.198;6.010;2023-05-10T01:04:10;100682.97;;;18.13;63.63
70976;BME280;58635;51.198;6.010;2023-05-10T01:06:37;100688.19;;;18.13;63.77
70976;BME280;58635;51.198;6.010;2023-05-10T01:09:02;100690.81;;;18.13;63.67
70976;BME280;58635;51.198;6.010;2023-05-10T01:11:28;100685.78;;;18.11;63.49
70976;BME280;58635;51.198;6.010;2023-05-10T01:13:57;100689.22;;;18.11;63.64
70976;BME280;58635;51.198;6.010;2023-05-10T01:16:23;100687.63;;;18.10;63.33
70976;BME280;58635;51.198;6.010;2023-05-10T01:18:50;100687.63;;;18.10;63.38
70976;BME280;58635;51.198;6.010;2023-05-10T01:29:18;100687.63;;;18.10;63.95
70976;BME280;58635;51.198;6.010;2023-05-10T01:34:53;100682.63;;;18.09;63.90
70976;BME280;58635;51.198;6.010;2023-05-10T01:37:36;100687.09;;;18.08;63.68
70976;BME280;58635;51.198;6.010;2023-05-10T01:42:49;100689.44;;;18.10;63.69
70976;BME280;58635;51.198;6.010;2023-05-10T01:45:22;100683.88;;;18.01;63.69
70976;BME280;58635;51.198;6.010;2023-05-10T01:47:58;100681.19;;;17.96;63.55
70976;BME280;58635;51.198;6.010;2023-05-10T01:50:29;100688.63;;;18.04;63.51
70976;BME280;58635;51.198;6.010;2023-05-10T01:52:57;100692.56;;;18.07;63.78
70976;BME280;58635;51.198;6.010;2023-05-10T01:55:25;100693.06;;;18.04;63.64
70976;BME280;58635;51.198;6.010;2023-05-10T01:57:59;100692.28;;;18.03;64.15
70976;BME280;58635;51.198;6.010;2023-05-10T02:00:25;100683.63;;;18.03;64.03
70976;BME280;58635;51.198;6.010;2023-05-10T02:02:52;100685.47;;;18.02;64.27
70976;BME280;58635;51.198;6.010;2023-05-10T02:05:20;100686.25;;;18.03;63.90
70976;BME280;58635;51.198;6.010;2023-05-10T02:07:47;100683.88;;;18.01;63.99
70976;BME280;58635;51.198;6.010;2023-05-10T02:10:13;100684.66;;;18.02;64.22
70976;BME280;58635;51.198;6.010;2023-05-10T02:12:42;100685.47;;;18.02;64.17
70976;BME280;58635;51.198;6.010;2023-05-10T02:15:10;100688.63;;;18.04;64.32
70976;BME280;58635;51.198;6.010;2023-05-10T02:17:37;100694.63;;;18.05;64.30
70976;BME280;58635;51.198;6.010;2023-05-10T02:20:05;100688.63;;;18.04;64.11
70976;BME280;58635;51.198;6.010;2023-05-10T02:22:32;100693.84;;;18.04;64.20
70976;BME280;58635;51.198;6.010;2023-05-10T02:24:59;100693.84;;;18.04;63.98
70976;BME280;58635;51.198;6.010;2023-05-10T02:27:27;100691.47;;;18.03;64.17
70976;BME280;58635;51.198;6.010;2023-05-10T02:29:53;100695.13;;;18.02;64.49
70976;BME280;58635;51.198;6.010;2023-05-10T02:32:21;100698.78;;;18.01;64.34
70976;BME280;58635;51.198;6.010;2023-05-10T02:34:47;100703.47;;;17.99;64.60
70976;BME280;58635;51.198;6.010;2023-05-10T02:37:19;100698.22;;;17.99;64.28
70976;BME280;58635;51.198;6.010;2023-05-10T02:39:46;100707.91;;;17.98;64.31
70976;BME280;58635;51.198;6.010;2023-05-10T02:42:16;100703.94;;;17.96;64.28
70976;BME280;58635;51.198;6.010;2023-05-10T02:44:43;100703.41;;;17.94;64.35
70976;BME280;58635;51.198;6.010;2023-05-10T02:47:10;100704.44;;;17.93;64.61
70976;BME280;58635;51.198;6.010;2023-05-10T02:49:36;100709.13;;;17.91;64.57
70976;BME280;58635;51.198;6.010;2023-05-10T02:52:04;100713.56;;;17.90;64.28
70976;BME280;58635;51.198;6.010;2023-05-10T02:54:34;100710.41;;;17.88;63.98
70976;BME280;58635;51.198;6.010;2023-05-10T02:57:04;100717.44;;;17.88;64.40
70976;BME280;58635;51.198;6.010;2023-05-10T02:59:31;100715.66;;;17.88;64.04
70976;BME280;58635;51.198;6.010;2023-05-10T03:02:01;100710.97;;;17.90;64.24
70976;BME280;58635;51.198;6.010;2023-05-10T03:04:27;100717.78;;;17.91;63.91
70976;BME280;58635;51.198;6.010;2023-05-10T03:06:52;100712.53;;;17.91;63.90
70976;BME280;58635;51.198;6.010;2023-05-10T03:09:18;100712.53;;;17.91;63.90
70976;BME280;58635;51.198;6.010;2023-05-10T03:12:11;100713.56;;;17.90;64.24
70976;BME280;58635;51.198;6.010;2023-05-10T03:15:03;100720.63;;;17.90;64.16
70976;BME280;58635;51.198;6.010;2023-05-10T03:17:56;100726.13;;;17.88;64.02
70976;BME280;58635;51.198;6.010;2023-05-10T03:20:29;100719.53;;;17.86;64.30
70976;BME280;58635;51.198;6.010;2023-05-10T03:23:05;100724.75;;;17.86;64.04
70976;BME280;58635;51.198;6.010;2023-05-10T03:25:33;100725.19;;;17.77;64.45
70976;BME280;58635;51.198;6.010;2023-05-10T03:28:00;100722.50;;;17.72;64.58
70976;BME280;58635;51.198;6.010;2023-05-10T03:30:26;100728.50;;;17.73;64.44
70976;BME280;58635;51.198;6.010;2023-05-10T03:32:52;100730.09;;;17.74;64.25
70976;BME280;58635;51.198;6.010;2023-05-10T03:35:18;100728.84;;;17.76;64.21
70976;BME280;58635;51.198;6.010;2023-05-10T03:37:43;100730.09;;;17.74;64.54
70976;BME280;58635;51.198;6.010;2023-05-10T03:40:09;100737.41;;;17.72;64.31
70976;BME280;58635;51.198;6.010;2023-05-10T03:42:34;100732.66;;;17.69;64.24
70976;BME280;58635;51.198;6.010;2023-05-10T03:45:00;100737.88;;;17.69;64.58
70976;BME280;58635;51.198;6.010;2023-05-10T03:47:25;100740.25;;;17.70;64.58
70976;BME280;58635;51.198;6.010;2023-05-10T03:49:51;100728.22;;;17.69;64.14
70976;BME280;58635;51.198;6.010;2023-05-10T03:52:16;100723.13;;;17.63;64.44
70976;BME280;58635;51.198;6.010;2023-05-10T03:54:42;100735.66;;;17.61;64.36
70976;BME280;58635;51.198;6.010;2023-05-10T03:57:08;100742.69;;;17.60;64.14
70976;BME280;58635;51.198;6.010;2023-05-10T03:59:33;100740.63;;;17.62;64.43
70976;BME280;58635;51.198;6.010;2023-05-10T04:01:58;100740.63;;;17.62;64.31
70976;BME280;58635;51.198;6.010;2023-05-10T04:04:24;100743.00;;;17.64;64.06
70976;BME280;58635;51.198;6.010;2023-05-10T04:06:49;100752.47;;;17.65;63.82
70976;BME280;58635;51.198;6.010;2023-05-10T04:09:15;100753.25;;;17.65;63.54
70976;BME280;58635;51.198;6.010;2023-05-10T04:11:41;100747.78;;;17.67;63.86
70976;BME280;58635;51.198;6.010;2023-05-10T04:14:07;100743.59;;;17.66;63.54
70976;BME280;58635;51.198;6.010;2023-05-10T04:16:32;100757.69;;;17.65;63.66
70976;BME280;58635;51.198;6.010;2023-05-10T04:18:58;100749.06;;;17.64;63.30
70976;BME280;58635;51.198;6.010;2023-05-10T04:21:24;100747.44;;;17.63;63.59
70976;BME280;58635;51.198;6.010;2023-05-10T04:23:50;100748.47;;;17.62;63.63
70976;BME280;58635;51.198;6.010;2023-05-10T04:26:15;100750.31;;;17.62;63.64
70976;BME280;58635;51.198;6.010;2023-05-10T04:28:41;100755.28;;;17.63;63.44
70976;BME280;58635;51.198;6.010;2023-05-10T04:31:07;100740.38;;;17.64;63.43
70976;BME280;58635;51.198;6.010;2023-05-10T04:33:33;100756.31;;;17.62;63.58
70976;BME280;58635;51.198;6.010;2023-05-10T04:35:59;100754.75;;;17.61;63.33
70976;BME280;58635;51.198;6.010;2023-05-10T04:38:26;100759.72;;;17.63;63.58
70976;BME280;58635;51.198;6.010;2023-05-10T04:40:52;100762.34;;;17.63;63.54
70976;BME280;58635;51.198;6.010;2023-05-10T04:43:17;100762.94;;;17.65;63.63
70976;BME280;58635;51.198;6.010;2023-05-10T04:45:43;100760.53;;;17.63;63.26
70976;BME280;58635;51.198;6.010;2023-05-10T04:48:09;100764.75;;;17.64;63.63
70976;BME280;58635;51.198;6.010;2023-05-10T04:50:35;100762.13;;;17.64;63.55
70976;BME280;58635;51.198;6.010;2023-05-10T04:53:00;100760.53;;;17.63;63.57
70976;BME280;58635;51.198;6.010;2023-05-10T04:55:26;100763.94;;;17.64;63.74
70976;BME280;58635;51.198;6.010;2023-05-10T04:57:52;100762.13;;;17.64;63.50
70976;BME280;58635;51.198;6.010;2023-05-10T05:00:18;100766.34;;;17.65;63.67
70976;BME280;58635;51.198;6.010;2023-05-10T05:02:44;100762.44;;;17.68;63.62
70976;BME280;58635;51.198;6.010;2023-05-10T05:05:13;100767.66;;;17.68;63.53
70976;BME280;58635;51.198;6.010;2023-05-10T05:07:38;100766.41;;;17.70;63.68
70976;BME280;58635;51.198;6.010;2023-05-10T05:10:08;100767.44;;;17.69;63.55
70976;BME280;58635;51.198;6.010;2023-05-10T05:12:34;100772.44;;;17.71;63.68
70976;BME280;58635;51.198;6.010;2023-05-10T05:15:00;100771.91;;;17.69;63.72
70976;BME280;58635;51.198;6.010;2023-05-10T05:17:26;100784.16;;;17.68;63.94
70976;BME280;58635;51.198;6.010;2023-05-10T05:19:51;100780.75;;;17.68;63.99
70976;BME280;58635;51.198;6.010;2023-05-10T05:22:17;100786.75;;;17.68;63.92
70976;BME280;58635;51.198;6.010;2023-05-10T05:24:42;100784.41;;;17.67;64.15
70976;BME280;58635;51.198;6.010;2023-05-10T05:27:08;100789.63;;;17.67;63.77
70976;BME280;58635;51.198;6.010;2023-05-10T05:29:33;100786.75;;;17.68;63.77
70976;BME280;58635;51.198;6.010;2023-05-10T05:31:58;100789.38;;;17.68;63.96
70976;BME280;58635;51.198;6.010;2023-05-10T05:34:24;100791.78;;;17.70;63.88
70976;BME280;58635;51.198;6.010;2023-05-10T05:36:50;100791.53;;;17.71;64.29
70976;BME280;58635;51.198;6.010;2023-05-10T05:39:16;100794.94;;;17.72;64.08
70976;BME280;58635;51.198;6.010;2023-05-10T05:41:42;100795.19;;;17.70;63.83
70976;BME280;58635;51.198;6.010;2023-05-10T05:44:07;100802.78;;;17.72;63.80
70976;BME280;58635;51.198;6.010;2023-05-10T05:46:33;100803.59;;;17.72;63.74
70976;BME280;58635;51.198;6.010;2023-05-10T05:48:58;100803.91;;;17.76;63.97
70976;BME280;58635;51.198;6.010;2023-05-10T05:51:23;100805.72;;;17.75;63.74
70976;BME280;58635;51.198;6.010;2023-05-10T05:53:49;100807.31;;;17.76;63.89
70976;BME280;58635;51.198;6.010;2023-05-10T05:56:14;100814.13;;;17.77;63.86
70976;BME280;58635;51.198;6.010;2023-05-10T05:58:39;100814.69;;;17.79;63.85
70976;BME280;58635;51.198;6.010;2023-05-10T06:01:05;100817.06;;;17.81;63.71
70976;BME280;58635;51.198;6.010;2023-05-10T06:03:30;100821.81;;;17.84;63.58
70976;BME280;58635;51.198;6.010;2023-05-10T06:05:56;100824.19;;;17.86;63.76
70976;BME280;58635;51.198;6.010;2023-05-10T06:08:21;100825.53;;;17.88;63.79
70976;BME280;58635;51.198;6.010;2023-05-10T06:10:47;100830.53;;;17.90;63.60
70976;BME280;58635;51.198;6.010;2023-05-10T06:13:12;100832.66;;;17.93;63.21
70976;BME280;58635;51.198;6.010;2023-05-10T06:15:38;100832.41;;;17.94;63.46
70976;BME280;58635;51.198;6.010;2023-05-10T06:18:03;100829.56;;;17.96;63.10
70976;BME280;58635;51.198;6.010;2023-05-10T06:20:29;100834.53;;;17.97;63.27
70976;BME280;58635;51.198;6.010;2023-05-10T06:22:56;100836.13;;;17.98;63.48
70976;BME280;58635;51.198;6.010;2023-05-10T06:25:22;100836.38;;;17.97;63.18
70976;BME280;58635;51.198;6.010;2023-05-10T06:27:48;100844.22;;;17.97;62.91
70976;BME280;58635;51.198;6.010;2023-05-10T06:30:13;100840.81;;;17.96;63.32
70976;BME280;58635;51.198;6.010;2023-05-10T06:32:40;100832.19;;;17.96;62.90
70976;BME280;58635;51.198;6.010;2023-05-10T06:35:06;100838.44;;;17.95;63.03
70976;BME280;58635;51.198;6.010;2023-05-10T06:37:32;100835.81;;;17.95;62.83
70976;BME280;58635;51.198;6.010;2023-05-10T06:39:57;100839.47;;;17.94;62.73
70976;BME280;58635;51.198;6.010;2023-05-10T06:42:22;100841.84;;;17.95;62.56
70976;BME280;58635;51.198;6.010;2023-05-10T06:44:50;100844.78;;;17.99;62.77
70976;BME280;58635;51.198;6.010;2023-05-10T06:47:15;100845.09;;;18.02;62.63
70976;BME280;58635;51.198;6.010;2023-05-10T06:49:41;100855.63;;;18.07;62.69
70976;BME280;58635;51.198;6.010;2023-05-10T06:52:06;100853.09;;;18.13;62.50
70976;BME280;58635;51.198;6.010;2023-05-10T06:54:31;100860.75;;;18.19;62.20
70976;BME280;58635;51.198;6.010;2023-05-10T06:56:57;100868.22;;;18.27;62.17
70976;BME280;58635;51.198;6.010;2023-05-10T06:59:22;100868.59;;;18.36;61.86
70976;BME280;58635;51.198;6.010;2023-05-10T07:01:49;100860.38;;;18.49;61.86
70976;BME280;58635;51.198;6.010;2023-05-10T07:04:14;100863.41;;;18.63;61.17
70976;BME280;58635;51.198;6.010;2023-05-10T07:06:39;100863.84;;;18.77;61.06
70976;BME280;58635;51.198;6.010;2023-05-10T07:09:05;100869.50;;;18.90;60.70
70976;BME280;58635;51.198;6.010;2023-05-10T07:11:31;100869.63;;;19.01;59.88
70976;BME280;58635;51.198;6.010;2023-05-10T07:13:56;100868.66;;;19.07;59.65
70976;BME280;58635;51.198;6.010;2023-05-10T07:16:21;100866.06;;;19.12;59.60
70976;BME280;58635;51.198;6.010;2023-05-10T07:18:47;100876.28;;;19.13;59.36
70976;BME280;58635;51.198;6.010;2023-05-10T07:21:12;100885.75;;;19.14;59.19
70976;BME280;58635;51.198;6.010;2023-05-10T07:23:38;100891.06;;;19.19;59.03
70976;BME280;58635;51.198;6.010;2023-05-10T07:26:04;100887.13;;;19.22;58.90
70976;BME280;58635;51.198;6.010;2023-05-10T07:28:30;100884.28;;;19.28;58.57
70976;BME280;58635;51.198;6.010;2023-05-10T07:30:55;100884.63;;;19.32;58.37
70976;BME280;58635;51.198;6.010;2023-05-10T07:33:21;100892.50;;;19.37;58.43
70976;BME280;58635;51.198;6.010;2023-05-10T07:35:46;100892.50;;;19.37;57.88
70976;BME280;58635;51.198;6.010;2023-05-10T07:38:12;100895.09;;;19.32;57.96
70976;BME280;58635;51.198;6.010;2023-05-10T07:40:37;100896.63;;;19.28;57.84
70976;BME280;58635;51.198;6.010;2023-05-10T07:43:03;100892.13;;;19.23;58.14
70976;BME280;58635;51.198;6.010;2023-05-10T07:45:28;100901.53;;;19.19;58.17
70976;BME280;58635;51.198;6.010;2023-05-10T07:47:54;100901.22;;;19.16;58.00
70976;BME280;58635;51.198;6.010;2023-05-10T07:50:19;100901.97;;;19.11;58.25
70976;BME280;58635;51.198;6.010;2023-05-10T07:52:46;100900.38;;;19.10;57.87
70976;BME280;58635;51.198;6.010;2023-05-10T07:55:12;100898.81;;;19.09;57.88
70976;BME280;58635;51.198;6.010;2023-05-10T07:57:37;100906.69;;;19.09;57.71
70976;BME280;58635;51.198;6.010;2023-05-10T08:00:03;100911.91;;;19.09;57.62
70976;BME280;58635;51.198;6.010;2023-05-10T08:02:28;100906.44;;;19.11;57.63
70976;BME280;58635;51.198;6.010;2023-05-10T08:04:54;100911.91;;;19.09;57.51
70976;BME280;58635;51.198;6.010;2023-05-10T08:07:21;100916.84;;;19.06;57.47
70976;BME280;58635;51.198;6.010;2023-05-10T08:09:46;100922.03;;;19.01;57.97
70976;BME280;58635;51.198;6.010;2023-05-10T08:12:11;100920.97;;;18.96;57.82
70976;BME280;58635;51.198;6.010;2023-05-10T08:14:37;100919.06;;;18.92;58.13
70976;BME280;58635;51.198;6.010;2023-05-10T08:17:03;100921.38;;;18.88;58.34
70976;BME280;58635;51.198;6.010;2023-05-10T08:19:29;100921.34;;;18.83;58.28
70976;BME280;58635;51.198;6.010;2023-05-10T08:21:54;100919.72;;;18.82;58.37
70976;BME280;58635;51.198;6.010;2023-05-10T08:24:21;100924.41;;;18.80;58.38
70976;BME280;58635;51.198;6.010;2023-05-10T08:26:46;100930.94;;;18.78;58.62
70976;BME280;58635;51.198;6.010;2023-05-10T08:29:13;100937.22;;;18.77;58.41
70976;BME280;58635;51.198;6.010;2023-05-10T08:31:38;100939.06;;;18.76;58.42
70976;BME280;58635;51.198;6.010;2023-05-10T08:34:04;100947.47;;;18.78;58.62
70976;BME280;58635;51.198;6.010;2023-05-10T08:36:29;100951.13;;;18.77;58.51
70976;BME280;58635;51.198;6.010;2023-05-10T08:38:55;100953.75;;;18.77;58.47
70976;BME280;58635;51.198;6.010;2023-05-10T08:41:22;100950.88;;;18.79;58.79
70976;BME280;58635;51.198;6.010;2023-05-10T08:43:50;100951.16;;;18.82;58.74
70976;BME280;58635;51.198;6.010;2023-05-10T08:46:17;100957.78;;;18.85;58.75
70976;BME280;58635;51.198;6.010;2023-05-10T08:48:44;100957.28;;;18.88;58.50
70976;BME280;58635;51.198;6.010;2023-05-10T08:51:13;100948.22;;;18.95;58.73
70976;BME280;58635;51.198;6.010;2023-05-10T08:53:39;100951.50;;;19.08;58.71
70976;BME280;58635;51.198;6.010;2023-05-10T08:56:05;100954.28;;;19.23;58.47
70976;BME280;58635;51.198;6.010;2023-05-10T08:58:30;100955.97;;;19.34;58.00
70976;BME280;58635;51.198;6.010;2023-05-10T09:00:59;100961.78;;;19.41;57.74
70976;BME280;58635;51.198;6.010;2023-05-10T09:03:25;100961.59;;;19.48;57.52
70976;BME280;58635;51.198;6.010;2023-05-10T09:05:51;100964.75;;;19.50;57.34
70976;BME280;58635;51.198;6.010;2023-05-10T09:08:17;100972.94;;;19.53;57.30
70976;BME280;58635;51.198;6.010;2023-05-10T09:10:44;100977.75;;;19.62;57.05
70976;BME280;58635;51.198;6.010;2023-05-10T09:13:14;100979.94;;;19.70;56.96
70976;BME280;58635;51.198;6.010;2023-05-10T09:15:44;100978.94;;;19.76;56.62
70976;BME280;58635;51.198;6.010;2023-05-10T09:18:10;100979.78;;;19.81;56.71
70976;BME280;58635;51.198;6.010;2023-05-10T09:20:35;100981.66;;;19.86;56.26
70976;BME280;58635;51.198;6.010;2023-05-10T09:23:01;100990.31;;;19.86;56.23
70976;BME280;58635;51.198;6.010;2023-05-10T09:25:26;100980.31;;;19.83;56.32
70976;BME280;58635;51.198;6.010;2023-05-10T09:27:52;100983.72;;;19.79;56.19
70976;BME280;58635;51.198;6.010;2023-05-10T09:30:26;100988.66;;;19.75;56.09
70976;BME280;58635;51.198;6.010;2023-05-10T09:32:52;100997.03;;;19.72;56.24
70976;BME280;58635;51.198;6.010;2023-05-10T09:35:20;100992.06;;;19.76;56.34
70976;BME280;58635;51.198;6.010;2023-05-10T09:37:48;100992.84;;;19.76;56.05
70976;BME280;58635;51.198;6.010;2023-05-10T09:40:15;100994.47;;;19.77;56.08
70976;BME280;58635;51.198;6.010;2023-05-10T09:42:52;100993.97;;;19.80;56.06
70976;BME280;58635;51.198;6.010;2023-05-10T09:45:18;100993.72;;;19.87;55.79
70976;BME280;58635;51.198;6.010;2023-05-10T09:47:44;100992.75;;;19.93;55.90
70976;BME280;58635;51.198;6.010;2023-05-10T09:50:10;100996.16;;;19.94;55.71
70976;BME280;58635;51.198;6.010;2023-05-10T09:55:13;101007.63;;;19.82;56.00
70976;BME280;58635;51.198;6.010;2023-05-10T09:57:39;101000.97;;;19.75;55.88
70976;BME280;58635;51.198;6.010;2023-05-10T10:00:09;101006.97;;;19.70;56.13
70976;BME280;58635;51.198;6.010;2023-05-10T10:02:35;101004.06;;;19.67;56.49
70976;BME280;58635;51.198;6.010;2023-05-10T10:05:01;101004.84;;;19.67;56.47
70976;BME280;58635;51.198;6.010;2023-05-10T10:07:28;101004.34;;;19.70;56.05
70976;BME280;58635;51.198;6.010;2023-05-10T10:09:54;101005.66;;;19.68;56.30
70976;BME280;58635;51.198;6.010;2023-05-10T10:12:20;101006.91;;;19.65;56.33
70976;BME280;58635;51.198;6.010;2023-05-10T10:14:47;101003.50;;;19.65;56.46
70976;BME280;58635;51.198;6.010;2023-05-10T10:17:17;101014.00;;;19.65;56.55
70976;BME280;58635;51.198;6.010;2023-05-10T10:19:43;101009.31;;;19.67;56.68
70976;BME280;58635;51.198;6.010;2023-05-10T10:22:08;101009.31;;;19.67;56.47
70976;BME280;58635;51.198;6.010;2023-05-10T10:24:37;101011.69;;;19.68;56.62
70976;BME280;58635;51.198;6.010;2023-05-10T10:27:11;101013.81;;;19.71;56.45
70976;BME280;58635;51.198;6.010;2023-05-10T10:29:47;101016.19;;;19.73;56.33
70976;BME280;58635;51.198;6.010;2023-05-10T10:32:42;101013.06;;;19.76;56.31
70976;BME280;58635;51.198;6.010;2023-05-10T10:35:15;101012.84;;;19.77;56.08
70976;BME280;58635;51.198;6.010;2023-05-10T10:37:43;101015.31;;;19.89;56.31
70976;BME280;58635;51.198;6.010;2023-05-10T10:42:54;101010.03;;;20.21;55.20
70976;BME280;58635;51.198;6.010;2023-05-10T10:45:20;101012.53;;;20.38;55.32
70976;BME280;58635;51.198;6.010;2023-05-10T10:47:46;101008.47;;;20.57;54.95
70976;BME280;58635;51.198;6.010;2023-05-10T10:50:11;101016.69;;;20.71;54.68
70976;BME280;58635;51.198;6.010;2023-05-10T10:52:45;101012.53;;;20.80;54.21
70976;BME280;58635;51.198;6.010;2023-05-10T10:55:18;101013.88;;;20.88;54.16
70976;BME280;58635;51.198;6.010;2023-05-10T10:57:57;101009.44;;;20.93;53.84
70976;BME280;58635;51.198;6.010;2023-05-10T11:10:38;101014.31;;;21.27;52.89
70976;BME280;58635;51.198;6.010;2023-05-10T11:13:09;101026.91;;;21.20;52.90
70976;BME280;58635;51.198;6.010;2023-05-10T11:15:38;101014.78;;;21.09;52.86
70976;BME280;58635;51.198;6.010;2023-05-10T11:18:39;101014.16;;;20.91;53.31
70976;BME280;58635;51.198;6.010;2023-05-10T11:21:08;101019.09;;;20.83;53.30
70976;BME280;58635;51.198;6.010;2023-05-10T11:26:08;101015.88;;;20.70;53.80
70976;BME280;58635;51.198;6.010;2023-05-10T11:28:44;101021.16;;;20.70;53.65
70976;BME280;58635;51.198;6.010;2023-05-10T11:31:10;101007.78;;;20.72;53.87
70976;BME280;58635;51.198;6.010;2023-05-10T11:33:48;101014.38;;;20.80;53.80
70976;BME280;58635;51.198;6.010;2023-05-10T11:36:15;101013.88;;;20.88;53.61
70976;BME280;58635;51.198;6.010;2023-05-10T11:38:41;101020.78;;;20.99;53.27
70976;BME280;58635;51.198;6.010;2023-05-10T11:41:11;101017.94;;;21.16;53.03
70976;BME280;58635;51.198;6.010;2023-05-10T11:43:38;101024.88;;;21.32;52.77
70976;BME280;58635;51.198;6.010;2023-05-10T11:46:13;101022.28;;;21.47;52.46
70976;BME280;58635;51.198;6.010;2023-05-10T11:48:39;101021.78;;;21.55;52.24
70976;BME280;58635;51.198;6.010;2023-05-10T11:51:06;101018.66;;;21.69;52.14
70976;BME280;58635;51.198;6.010;2023-05-10T11:53:33;101018.13;;;21.82;51.61
70976;BME280;58635;51.198;6.010;2023-05-10T11:56:09;101024.44;;;21.96;50.88
70976;BME280;58635;51.198;6.010;2023-05-10T11:58:36;101012.09;;;22.07;50.73
70976;BME280;58635;51.198;6.010;2023-05-10T12:01:03;101002.06;;;22.24;50.72
70976;BME280;58635;51.198;6.010;2023-05-10T12:03:29;101005.47;;;22.45;50.44
70976;BME280;58635;51.198;6.010;2023-05-10T12:05:55;101009.13;;;22.64;49.94
70976;BME280;58635;51.198;6.010;2023-05-10T12:08:23;101014.63;;;22.88;49.35
70976;BME280;58635;51.198;6.010;2023-05-10T12:10:50;101006.34;;;23.10;49.13
70976;BME280;58635;51.198;6.010;2023-05-10T12:13:15;101010.47;;;23.26;48.23
70976;BME280;58635;51.198;6.010;2023-05-10T12:15:42;101017.28;;;23.38;48.01
70976;BME280;58635;51.198;6.010;2023-05-10T12:18:11;101016.41;;;23.52;47.57
70976;BME280;58635;51.198;6.010;2023-05-10T12:20:37;101021.16;;;23.50;46.74
70976;BME280;58635;51.198;6.010;2023-05-10T12:23:04;101019.03;;;23.52;46.79
70976;BME280;58635;51.198;6.010;2023-05-10T12:25:32;101015.31;;;23.63;46.99
70976;BME280;58635;51.198;6.010;2023-05-10T12:27:58;101016.06;;;23.69;46.56
70976;BME280;58635;51.198;6.010;2023-05-10T12:30:27;101014.66;;;23.82;46.80
70976;BME280;58635;51.198;6.010;2023-05-10T12:32:53;101014.03;;;23.90;45.92
70976;BME280;58635;51.198;6.010;2023-05-10T12:35:19;101012.63;;;24.03;45.74
70976;BME280;58635;51.198;6.010;2023-05-10T12:37:50;101014.28;;;24.28;45.00
70976;BME280;58635;51.198;6.010;2023-05-10T12:40:15;101011.50;;;24.43;45.16
70976;BME280;58635;51.198;6.010;2023-05-10T12:42:41;101011.84;;;24.60;44.44
70976;BME280;58635;51.198;6.010;2023-05-10T12:45:07;101009.03;;;24.75;44.61
70976;BME280;58635;51.198;6.010;2023-05-10T12:47:33;101020.63;;;24.79;43.83
70976;BME280;58635;51.198;6.010;2023-05-10T12:50:00;101016.97;;;24.75;44.36
70976;BME280;58635;51.198;6.010;2023-05-10T12:52:27;101021.06;;;24.87;44.45
70976;BME280;58635;51.198;6.010;2023-05-10T12:54:52;101025.78;;;25.14;44.12
70976;BME280;58635;51.198;6.010;2023-05-10T12:57:19;101027.59;;;25.37;43.82
70976;BME280;58635;51.198;6.010;2023-05-10T12:59:45;101024.94;;;25.56;43.46
70976;BME280;58635;51.198;6.010;2023-05-10T13:02:10;101034.28;;;25.67;42.70
70976;BME280;58635;51.198;6.010;2023-05-10T13:04:36;101033.31;;;25.63;42.51
70976;BME280;58635;51.198;6.010;2023-05-10T13:07:05;101038.84;;;25.48;42.29
70976;BME280;58635;51.198;6.010;2023-05-10T13:09:31;101045.47;;;25.26;42.51
70976;BME280;58635;51.198;6.010;2023-05-10T13:11:56;101038.38;;;25.03;42.68
70976;BME280;58635;51.198;6.010;2023-05-10T13:14:22;101045.72;;;24.82;42.91
70976;BME280;58635;51.198;6.010;2023-05-10T13:16:47;101035.09;;;24.63;43.23
70976;BME280;58635;51.198;6.010;2023-05-10T13:19:16;101037.09;;;24.47;43.27
70976;BME280;58635;51.198;6.010;2023-05-10T13:21:42;101042.75;;;24.36;43.35